Terminal Aerodrome Forecast
Issued by NWS

Home | Current Version | Previous Version | Text Only | Print | Product List | Glossary On
Versions: 1 2 3 4 5 6 7 8 9 10 11 12 13 14 15 16 17 18 19 20 21 22 23
174
FTUS46 KSEW 281306 AAA
TAFPAE
TAF AMD
KPAE 281306Z 2813/0112 16005KT P6SM SCT025 BKN050
     FM281400 16005KT P6SM BKN025 BKN050
     FM281900 19010KT P6SM BKN035 BKN050
     FM282100 19013G22KT P6SM BKN050
     FM010200 18016G27KT P6SM -RA OVC040=

USA.gov is the U.S. government's official web portal to all federal, state and local government web resources and services.